Impacts METAR Board
IDs:

KVQQ - Jacksonville/Cecil A, FL, US

Updated at: 1800 UTC 02 Oct 2022
Potential Impact None Slight Moderate High
Time 02/06Z 02/07Z 02/08Z 02/09Z 02/10Z 02/11Z 02/12Z 02/13Z 02/14Z 02/15Z 02/16Z 02/17Z 02/18Z
Temp61 59 59 59 61 59 57 64 70 75 79 82 84
Dewpt61 59 59 59 61 59 57 63 63 63 61 61 61
Altim29.89 29.89 29.88 29.88 29.89 29.90 29.92 29.94 29.94 29.94 29.93 29.92 29.89
VIS10 9 7 7 10 10 10 10 10 10 10 10 10
CIG-- -- -- -- -- -- -- -- -- -- -- -- --
CoverCLRCLRCLRCLRCLRCLRCLRCLRCLRCLRCLRCLRCLR
FltCatVFRVFRVFRVFRVFRVFRVFRVFRVFRVFRVFRVFRVFR
WX--------------------------
WDir00002802802803003003100320330
WSpd0 0 0 0 4 6 4 5 5 5 3 8 8
WGst-- -- -- -- -- -- -- -- -- -- -- -- --
Raw hourly METARs
KVQQ 020555Z AUTO 00000KT 10SM CLR 16/16 A2989 RMK AO2
KVQQ 020655Z AUTO 00000KT 9SM CLR 15/15 A2989 RMK AO2
KVQQ 020755Z AUTO 00000KT 7SM CLR 15/15 A2988 RMK AO2
KVQQ 020855Z AUTO 00000KT 7SM CLR 15/15 A2988 RMK AO2
KVQQ 020955Z AUTO 28004KT 10SM CLR 16/16 A2989 RMK AO2
KVQQ 021050Z 28006KT 10SM CLR 15/15 A2990
KVQQ 021150Z 28004KT 10SM CLR 14/14 A2992
KVQQ 021250Z 30005KT 10SM CLR 18/17 A2994
KVQQ 021350Z 30005KT 10SM CLR 21/17 A2994
KVQQ 021450Z 31005KT 10SM CLR 24/17 A2994
KVQQ 021550Z VRB03KT 10SM CLR 26/16 A2993
KVQQ 021650Z 32008KT 10SM CLR 28/16 A2992
KVQQ 021750Z 33008KT 10SM CLR 29/16 A2989



Page loaded:  18:47 UTC  |   11:47 AM Pacific  |   12:47 PM Mountain  |   01:47 PM Central  |   02:47 PM Eastern

 

ADVISORIES

FORECASTS

FORECASTS

OBSERVATIONS

USER TOOLS

ABOUT US